sensor_id;sensor_type;location;lat;lon;timestamp;P1;durP1;ratioP1;P2;durP2;ratioP2
21095;SDS011;10706;49.036;12.112;2023-07-31T00:00:33;9.95;;;3.00;;
21095;SDS011;10706;49.036;12.112;2023-07-31T00:02:59;7.25;;;2.78;;
21095;SDS011;10706;49.036;12.112;2023-07-31T00:05:24;11.40;;;3.38;;
21095;SDS011;10706;49.036;12.112;2023-07-31T00:07:50;7.93;;;2.90;;
21095;SDS011;10706;49.036;12.112;2023-07-31T00:10:16;7.85;;;2.60;;
21095;SDS011;10706;49.036;12.112;2023-07-31T00:12:42;10.20;;;3.05;;
21095;SDS011;10706;49.036;12.112;2023-07-31T00:15:09;6.63;;;2.63;;
21095;SDS011;10706;49.036;12.112;2023-07-31T00:17:36;10.52;;;2.70;;
21095;SDS011;10706;49.036;12.112;2023-07-31T00:20:02;9.65;;;2.78;;
21095;SDS011;10706;49.036;12.112;2023-07-31T00:22:28;5.53;;;2.30;;
21095;SDS011;10706;49.036;12.112;2023-07-31T00:24:54;7.22;;;2.47;;
21095;SDS011;10706;49.036;12.112;2023-07-31T00:27:20;10.07;;;2.92;;
21095;SDS011;10706;49.036;12.112;2023-07-31T00:29:46;7.97;;;2.75;;
21095;SDS011;10706;49.036;12.112;2023-07-31T00:32:12;7.85;;;2.60;;
21095;SDS011;10706;49.036;12.112;2023-07-31T00:34:37;7.82;;;2.28;;
21095;SDS011;10706;49.036;12.112;2023-07-31T00:37:03;6.25;;;2.63;;
21095;SDS011;10706;49.036;12.112;2023-07-31T00:39:29;9.35;;;2.58;;
21095;SDS011;10706;49.036;12.112;2023-07-31T00:41:56;8.15;;;2.30;;
21095;SDS011;10706;49.036;12.112;2023-07-31T00:44:21;10.07;;;2.70;;
21095;SDS011;10706;49.036;12.112;2023-07-31T00:46:47;8.75;;;2.90;;
21095;SDS011;10706;49.036;12.112;2023-07-31T00:49:14;5.32;;;2.28;;
21095;SDS011;10706;49.036;12.112;2023-07-31T00:51:40;5.53;;;2.35;;
21095;SDS011;10706;49.036;12.112;2023-07-31T00:54:06;5.53;;;2.40;;
21095;SDS011;10706;49.036;12.112;2023-07-31T00:56:32;5.85;;;2.30;;
21095;SDS011;10706;49.036;12.112;2023-07-31T00:58:59;7.30;;;2.72;;
21095;SDS011;10706;49.036;12.112;2023-07-31T01:01:24;9.45;;;2.55;;
21095;SDS011;10706;49.036;12.112;2023-07-31T01:03:50;5.82;;;2.13;;
21095;SDS011;10706;49.036;12.112;2023-07-31T01:12:15;5.78;;;2.25;;
21095;SDS011;10706;49.036;12.112;2023-07-31T01:17:29;10.10;;;2.47;;
21095;SDS011;10706;49.036;12.112;2023-07-31T01:19:55;3.90;;;2.15;;
21095;SDS011;10706;49.036;12.112;2023-07-31T01:28:13;8.25;;;2.70;;
21095;SDS011;10706;49.036;12.112;2023-07-31T01:31:07;8.13;;;2.50;;
21095;SDS011;10706;49.036;12.112;2023-07-31T01:33:37;5.63;;;2.33;;
21095;SDS011;10706;49.036;12.112;2023-07-31T01:36:04;12.23;;;2.65;;
21095;SDS011;10706;49.036;12.112;2023-07-31T01:38:30;6.82;;;2.28;;
21095;SDS011;10706;49.036;12.112;2023-07-31T01:40:56;5.22;;;2.25;;
21095;SDS011;10706;49.036;12.112;2023-07-31T01:43:22;4.35;;;2.35;;
21095;SDS011;10706;49.036;12.112;2023-07-31T01:45:49;8.38;;;2.53;;
21095;SDS011;10706;49.036;12.112;2023-07-31T01:48:15;7.95;;;2.20;;
21095;SDS011;10706;49.036;12.112;2023-07-31T01:50:40;7.90;;;2.50;;
21095;SDS011;10706;49.036;12.112;2023-07-31T01:53:06;3.40;;;1.75;;
21095;SDS011;10706;49.036;12.112;2023-07-31T01:55:32;5.35;;;2.13;;
21095;SDS011;10706;49.036;12.112;2023-07-31T01:57:58;4.75;;;2.10;;
21095;SDS011;10706;49.036;12.112;2023-07-31T02:00:23;9.32;;;2.42;;
21095;SDS011;10706;49.036;12.112;2023-07-31T02:02:49;7.10;;;2.22;;
21095;SDS011;10706;49.036;12.112;2023-07-31T02:05:15;5.57;;;2.38;;
21095;SDS011;10706;49.036;12.112;2023-07-31T02:07:41;4.72;;;2.20;;
21095;SDS011;10706;49.036;12.112;2023-07-31T02:10:06;8.52;;;2.35;;
21095;SDS011;10706;49.036;12.112;2023-07-31T02:12:32;7.43;;;2.20;;
21095;SDS011;10706;49.036;12.112;2023-07-31T02:14:58;5.68;;;1.95;;
21095;SDS011;10706;49.036;12.112;2023-07-31T02:17:24;5.93;;;2.70;;
21095;SDS011;10706;49.036;12.112;2023-07-31T02:19:50;6.50;;;1.88;;
21095;SDS011;10706;49.036;12.112;2023-07-31T02:22:15;3.85;;;2.20;;
21095;SDS011;10706;49.036;12.112;2023-07-31T02:24:41;3.95;;;1.83;;
21095;SDS011;10706;49.036;12.112;2023-07-31T02:27:07;4.20;;;2.20;;
21095;SDS011;10706;49.036;12.112;2023-07-31T02:29:33;8.18;;;2.10;;
21095;SDS011;10706;49.036;12.112;2023-07-31T02:31:59;6.82;;;2.08;;
21095;SDS011;10706;49.036;12.112;2023-07-31T02:34:25;8.40;;;2.30;;
21095;SDS011;10706;49.036;12.112;2023-07-31T02:36:50;6.35;;;2.33;;
21095;SDS011;10706;49.036;12.112;2023-07-31T02:39:16;4.47;;;1.92;;
21095;SDS011;10706;49.036;12.112;2023-07-31T02:41:42;7.32;;;2.00;;
21095;SDS011;10706;49.036;12.112;2023-07-31T02:44:07;6.90;;;2.35;;
21095;SDS011;10706;49.036;12.112;2023-07-31T02:46:33;5.63;;;2.28;;
21095;SDS011;10706;49.036;12.112;2023-07-31T02:48:59;6.50;;;2.20;;
21095;SDS011;10706;49.036;12.112;2023-07-31T02:51:24;6.60;;;2.15;;
21095;SDS011;10706;49.036;12.112;2023-07-31T02:53:50;6.10;;;2.38;;
21095;SDS011;10706;49.036;12.112;2023-07-31T02:56:16;5.25;;;2.20;;
21095;SDS011;10706;49.036;12.112;2023-07-31T02:58:42;9.30;;;2.38;;
21095;SDS011;10706;49.036;12.112;2023-07-31T03:01:08;6.00;;;2.35;;
21095;SDS011;10706;49.036;12.112;2023-07-31T03:03:34;8.02;;;2.55;;
21095;SDS011;10706;49.036;12.112;2023-07-31T03:05:59;7.70;;;1.95;;
21095;SDS011;10706;49.036;12.112;2023-07-31T03:08:25;4.32;;;2.15;;
21095;SDS011;10706;49.036;12.112;2023-07-31T03:10:51;4.35;;;2.15;;
21095;SDS011;10706;49.036;12.112;2023-07-31T03:13:17;6.88;;;2.25;;
21095;SDS011;10706;49.036;12.112;2023-07-31T03:15:42;5.25;;;2.03;;
21095;SDS011;10706;49.036;12.112;2023-07-31T03:18:08;7.43;;;2.45;;
21095;SDS011;10706;49.036;12.112;2023-07-31T03:20:34;9.52;;;2.20;;
21095;SDS011;10706;49.036;12.112;2023-07-31T03:23:00;8.43;;;2.10;;
21095;SDS011;10706;49.036;12.112;2023-07-31T03:25:26;11.55;;;2.70;;
21095;SDS011;10706;49.036;12.112;2023-07-31T03:27:51;7.05;;;2.28;;
21095;SDS011;10706;49.036;12.112;2023-07-31T03:30:17;8.52;;;2.28;;
21095;SDS011;10706;49.036;12.112;2023-07-31T03:32:43;6.75;;;2.53;;
21095;SDS011;10706;49.036;12.112;2023-07-31T03:35:09;7.60;;;2.30;;
21095;SDS011;10706;49.036;12.112;2023-07-31T03:37:34;4.63;;;2.15;;
21095;SDS011;10706;49.036;12.112;2023-07-31T03:40:00;5.50;;;2.10;;
21095;SDS011;10706;49.036;12.112;2023-07-31T03:42:26;6.65;;;2.25;;
21095;SDS011;10706;49.036;12.112;2023-07-31T03:44:51;8.73;;;2.30;;
21095;SDS011;10706;49.036;12.112;2023-07-31T03:47:17;4.75;;;2.13;;
21095;SDS011;10706;49.036;12.112;2023-07-31T03:49:43;7.85;;;2.50;;
21095;SDS011;10706;49.036;12.112;2023-07-31T03:52:09;7.78;;;2.63;;
21095;SDS011;10706;49.036;12.112;2023-07-31T03:54:34;10.13;;;2.40;;
21095;SDS011;10706;49.036;12.112;2023-07-31T03:57:00;9.15;;;2.20;;
21095;SDS011;10706;49.036;12.112;2023-07-31T03:59:26;4.93;;;2.78;;
21095;SDS011;10706;49.036;12.112;2023-07-31T04:01:52;5.88;;;2.20;;
21095;SDS011;10706;49.036;12.112;2023-07-31T04:04:17;8.48;;;2.40;;
21095;SDS011;10706;49.036;12.112;2023-07-31T04:06:43;9.27;;;2.72;;
21095;SDS011;10706;49.036;12.112;2023-07-31T04:09:09;9.68;;;2.63;;
21095;SDS011;10706;49.036;12.112;2023-07-31T04:11:35;7.00;;;2.45;;
21095;SDS011;10706;49.036;12.112;2023-07-31T04:14:00;7.85;;;2.10;;
21095;SDS011;10706;49.036;12.112;2023-07-31T04:16:26;11.80;;;2.60;;
21095;SDS011;10706;49.036;12.112;2023-07-31T04:18:52;7.43;;;2.28;;
21095;SDS011;10706;49.036;12.112;2023-07-31T04:21:17;5.25;;;2.22;;
21095;SDS011;10706;49.036;12.112;2023-07-31T04:23:43;10.75;;;2.65;;
21095;SDS011;10706;49.036;12.112;2023-07-31T04:26:09;10.10;;;2.33;;
21095;SDS011;10706;49.036;12.112;2023-07-31T04:28:34;7.90;;;2.60;;
21095;SDS011;10706;49.036;12.112;2023-07-31T04:31:00;5.60;;;2.22;;
21095;SDS011;10706;49.036;12.112;2023-07-31T04:33:26;10.73;;;3.03;;
21095;SDS011;10706;49.036;12.112;2023-07-31T04:35:52;6.35;;;2.55;;
21095;SDS011;10706;49.036;12.112;2023-07-31T04:38:19;11.95;;;2.22;;
21095;SDS011;10706;49.036;12.112;2023-07-31T04:40:46;8.45;;;2.20;;
21095;SDS011;10706;49.036;12.112;2023-07-31T04:43:12;7.75;;;2.58;;
21095;SDS011;10706;49.036;12.112;2023-07-31T04:45:38;8.60;;;2.00;;
21095;SDS011;10706;49.036;12.112;2023-07-31T04:48:03;6.93;;;2.40;;
21095;SDS011;10706;49.036;12.112;2023-07-31T04:50:29;8.48;;;2.25;;
21095;SDS011;10706;49.036;12.112;2023-07-31T04:52:55;6.57;;;2.10;;
21095;SDS011;10706;49.036;12.112;2023-07-31T04:55:21;7.85;;;2.35;;
21095;SDS011;10706;49.036;12.112;2023-07-31T04:57:47;5.47;;;2.33;;
21095;SDS011;10706;49.036;12.112;2023-07-31T05:00:13;7.20;;;2.50;;
21095;SDS011;10706;49.036;12.112;2023-07-31T05:02:39;8.18;;;2.35;;
21095;SDS011;10706;49.036;12.112;2023-07-31T05:05:04;8.82;;;2.58;;
21095;SDS011;10706;49.036;12.112;2023-07-31T05:07:30;10.45;;;2.38;;
21095;SDS011;10706;49.036;12.112;2023-07-31T05:09:56;7.57;;;2.40;;
21095;SDS011;10706;49.036;12.112;2023-07-31T05:12:22;6.15;;;2.65;;
21095;SDS011;10706;49.036;12.112;2023-07-31T05:14:48;7.30;;;2.25;;
21095;SDS011;10706;49.036;12.112;2023-07-31T05:17:14;9.98;;;2.45;;
21095;SDS011;10706;49.036;12.112;2023-07-31T05:19:39;9.27;;;2.90;;
21095;SDS011;10706;49.036;12.112;2023-07-31T05:22:05;10.63;;;2.70;;
21095;SDS011;10706;49.036;12.112;2023-07-31T05:24:31;8.63;;;2.45;;
21095;SDS011;10706;49.036;12.112;2023-07-31T05:26:57;5.45;;;2.17;;
21095;SDS011;10706;49.036;12.112;2023-07-31T05:29:23;10.10;;;2.50;;
21095;SDS011;10706;49.036;12.112;2023-07-31T05:31:48;8.35;;;2.42;;
21095;SDS011;10706;49.036;12.112;2023-07-31T05:34:14;10.50;;;2.65;;
21095;SDS011;10706;49.036;12.112;2023-07-31T05:36:40;5.95;;;2.28;;
21095;SDS011;10706;49.036;12.112;2023-07-31T05:39:05;9.20;;;2.97;;
21095;SDS011;10706;49.036;12.112;2023-07-31T05:41:33;10.82;;;2.95;;
21095;SDS011;10706;49.036;12.112;2023-07-31T05:44:00;6.07;;;2.50;;
21095;SDS011;10706;49.036;12.112;2023-07-31T05:46:26;10.63;;;2.40;;
21095;SDS011;10706;49.036;12.112;2023-07-31T05:48:51;6.07;;;2.50;;
21095;SDS011;10706;49.036;12.112;2023-07-31T05:51:17;6.15;;;2.30;;
21095;SDS011;10706;49.036;12.112;2023-07-31T05:53:43;8.80;;;2.25;;
21095;SDS011;10706;49.036;12.112;2023-07-31T05:56:09;7.72;;;2.80;;
21095;SDS011;10706;49.036;12.112;2023-07-31T05:58:34;5.97;;;2.20;;
21095;SDS011;10706;49.036;12.112;2023-07-31T06:01:00;4.55;;;2.17;;
21095;SDS011;10706;49.036;12.112;2023-07-31T06:03:26;9.00;;;2.42;;
21095;SDS011;10706;49.036;12.112;2023-07-31T06:05:52;7.60;;;1.77;;
21095;SDS011;10706;49.036;12.112;2023-07-31T06:08:18;7.60;;;2.20;;
21095;SDS011;10706;49.036;12.112;2023-07-31T06:10:44;9.30;;;2.40;;
21095;SDS011;10706;49.036;12.112;2023-07-31T06:13:09;9.20;;;2.42;;
21095;SDS011;10706;49.036;12.112;2023-07-31T06:15:35;7.93;;;2.33;;
21095;SDS011;10706;49.036;12.112;2023-07-31T06:18:01;8.50;;;2.05;;
21095;SDS011;10706;49.036;12.112;2023-07-31T06:20:28;7.10;;;2.17;;
21095;SDS011;10706;49.036;12.112;2023-07-31T06:22:54;6.50;;;2.08;;
21095;SDS011;10706;49.036;12.112;2023-07-31T06:25:19;8.40;;;2.20;;
21095;SDS011;10706;49.036;12.112;2023-07-31T06:27:45;6.22;;;2.30;;
21095;SDS011;10706;49.036;12.112;2023-07-31T06:30:11;6.90;;;2.00;;
21095;SDS011;10706;49.036;12.112;2023-07-31T06:32:37;7.13;;;1.98;;
21095;SDS011;10706;49.036;12.112;2023-07-31T06:35:02;8.23;;;2.05;;
21095;SDS011;10706;49.036;12.112;2023-07-31T06:37:29;10.38;;;2.03;;
21095;SDS011;10706;49.036;12.112;2023-07-31T06:39:54;5.22;;;1.90;;
21095;SDS011;10706;49.036;12.112;2023-07-31T06:42:20;5.60;;;2.20;;
21095;SDS011;10706;49.036;12.112;2023-07-31T06:44:46;4.50;;;1.90;;
21095;SDS011;10706;49.036;12.112;2023-07-31T06:47:12;7.18;;;1.73;;
21095;SDS011;10706;49.036;12.112;2023-07-31T06:49:38;5.95;;;1.73;;
21095;SDS011;10706;49.036;12.112;2023-07-31T06:52:04;5.47;;;1.73;;
21095;SDS011;10706;49.036;12.112;2023-07-31T06:54:30;5.88;;;2.33;;
21095;SDS011;10706;49.036;12.112;2023-07-31T06:56:56;7.05;;;2.00;;
21095;SDS011;10706;49.036;12.112;2023-07-31T06:59:22;5.38;;;1.80;;
21095;SDS011;10706;49.036;12.112;2023-07-31T07:01:49;6.45;;;1.90;;
21095;SDS011;10706;49.036;12.112;2023-07-31T07:04:14;5.88;;;2.00;;
21095;SDS011;10706;49.036;12.112;2023-07-31T07:06:41;8.43;;;1.90;;
21095;SDS011;10706;49.036;12.112;2023-07-31T07:09:07;10.40;;;1.75;;
21095;SDS011;10706;49.036;12.112;2023-07-31T07:11:33;7.35;;;2.28;;
21095;SDS011;10706;49.036;12.112;2023-07-31T07:13:59;6.07;;;1.80;;
21095;SDS011;10706;49.036;12.112;2023-07-31T07:16:25;13.77;;;2.40;;
21095;SDS011;10706;49.036;12.112;2023-07-31T07:18:53;4.82;;;1.80;;
21095;SDS011;10706;49.036;12.112;2023-07-31T07:21:19;6.70;;;2.10;;
21095;SDS011;10706;49.036;12.112;2023-07-31T07:23:45;11.15;;;2.25;;
21095;SDS011;10706;49.036;12.112;2023-07-31T07:26:11;4.97;;;2.08;;
21095;SDS011;10706;49.036;12.112;2023-07-31T07:28:36;4.32;;;1.90;;
21095;SDS011;10706;49.036;12.112;2023-07-31T07:31:02;8.10;;;2.10;;
21095;SDS011;10706;49.036;12.112;2023-07-31T07:33:28;5.38;;;1.80;;
21095;SDS011;10706;49.036;12.112;2023-07-31T07:35:54;4.60;;;1.70;;
21095;SDS011;10706;49.036;12.112;2023-07-31T07:38:20;7.47;;;1.88;;
21095;SDS011;10706;49.036;12.112;2023-07-31T07:40:45;8.95;;;2.90;;
21095;SDS011;10706;49.036;12.112;2023-07-31T07:43:15;3.50;;;1.75;;
21095;SDS011;10706;49.036;12.112;2023-07-31T07:45:41;5.72;;;1.90;;
21095;SDS011;10706;49.036;12.112;2023-07-31T07:48:07;7.30;;;2.03;;
21095;SDS011;10706;49.036;12.112;2023-07-31T07:50:32;7.78;;;2.25;;
21095;SDS011;10706;49.036;12.112;2023-07-31T07:52:58;3.67;;;1.67;;
21095;SDS011;10706;49.036;12.112;2023-07-31T07:55:24;6.88;;;2.58;;
21095;SDS011;10706;49.036;12.112;2023-07-31T07:57:49;9.98;;;2.78;;
21095;SDS011;10706;49.036;12.112;2023-07-31T08:00:15;10.00;;;2.15;;
21095;SDS011;10706;49.036;12.112;2023-07-31T08:02:42;6.95;;;2.25;;
21095;SDS011;10706;49.036;12.112;2023-07-31T08:05:08;7.47;;;1.83;;
21095;SDS011;10706;49.036;12.112;2023-07-31T08:07:34;4.70;;;1.80;;
21095;SDS011;10706;49.036;12.112;2023-07-31T08:10:00;4.65;;;1.63;;
21095;SDS011;10706;49.036;12.112;2023-07-31T08:12:28;5.97;;;1.90;;
21095;SDS011;10706;49.036;12.112;2023-07-31T08:14:54;5.80;;;1.80;;
21095;SDS011;10706;49.036;12.112;2023-07-31T08:17:20;5.95;;;1.75;;
21095;SDS011;10706;49.036;12.112;2023-07-31T08:19:46;5.53;;;1.88;;
21095;SDS011;10706;49.036;12.112;2023-07-31T08:22:12;4.65;;;2.00;;
21095;SDS011;10706;49.036;12.112;2023-07-31T08:24:37;8.38;;;2.15;;
21095;SDS011;10706;49.036;12.112;2023-07-31T08:27:03;5.28;;;2.10;;
21095;SDS011;10706;49.036;12.112;2023-07-31T08:29:31;5.60;;;1.88;;
21095;SDS011;10706;49.036;12.112;2023-07-31T08:31:57;6.65;;;2.03;;
21095;SDS011;10706;49.036;12.112;2023-07-31T08:34:22;7.60;;;2.28;;
21095;SDS011;10706;49.036;12.112;2023-07-31T08:36:48;6.88;;;1.77;;
21095;SDS011;10706;49.036;12.112;2023-07-31T08:39:14;5.07;;;1.95;;
21095;SDS011;10706;49.036;12.112;2023-07-31T08:41:40;10.48;;;1.80;;
21095;SDS011;10706;49.036;12.112;2023-07-31T08:44:08;8.73;;;1.90;;
21095;SDS011;10706;49.036;12.112;2023-07-31T08:46:37;6.30;;;1.60;;
21095;SDS011;10706;49.036;12.112;2023-07-31T08:49:06;8.07;;;1.83;;
21095;SDS011;10706;49.036;12.112;2023-07-31T08:51:34;7.88;;;1.90;;
21095;SDS011;10706;49.036;12.112;2023-07-31T08:54:01;5.68;;;2.17;;
21095;SDS011;10706;49.036;12.112;2023-07-31T08:56:29;7.68;;;2.47;;
21095;SDS011;10706;49.036;12.112;2023-07-31T08:58:56;7.70;;;2.13;;
21095;SDS011;10706;49.036;12.112;2023-07-31T09:01:26;7.97;;;2.28;;
21095;SDS011;10706;49.036;12.112;2023-07-31T09:03:56;8.25;;;2.00;;
21095;SDS011;10706;49.036;12.112;2023-07-31T09:06:25;8.00;;;1.90;;
21095;SDS011;10706;49.036;12.112;2023-07-31T09:08:55;11.13;;;2.25;;
21095;SDS011;10706;49.036;12.112;2023-07-31T09:11:21;5.93;;;1.88;;
21095;SDS011;10706;49.036;12.112;2023-07-31T09:13:49;8.80;;;2.00;;
21095;SDS011;10706;49.036;12.112;2023-07-31T09:16:15;10.30;;;2.08;;
21095;SDS011;10706;49.036;12.112;2023-07-31T09:18:54;7.03;;;1.90;;
21095;SDS011;10706;49.036;12.112;2023-07-31T09:21:21;6.72;;;2.22;;
21095;SDS011;10706;49.036;12.112;2023-07-31T09:23:49;8.57;;;2.00;;
21095;SDS011;10706;49.036;12.112;2023-07-31T09:26:30;6.90;;;2.03;;
21095;SDS011;10706;49.036;12.112;2023-07-31T09:29:01;7.97;;;2.55;;
21095;SDS011;10706;49.036;12.112;2023-07-31T09:31:33;8.70;;;2.38;;
21095;SDS011;10706;49.036;12.112;2023-07-31T09:34:08;9.25;;;2.25;;
21095;SDS011;10706;49.036;12.112;2023-07-31T09:36:42;8.00;;;2.70;;
21095;SDS011;10706;49.036;12.112;2023-07-31T09:39:18;5.88;;;2.00;;
21095;SDS011;10706;49.036;12.112;2023-07-31T09:41:48;6.10;;;2.17;;
21095;SDS011;10706;49.036;12.112;2023-07-31T09:44:20;7.70;;;2.10;;
21095;SDS011;10706;49.036;12.112;2023-07-31T09:46:46;8.52;;;1.90;;
21095;SDS011;10706;49.036;12.112;2023-07-31T09:49:12;5.85;;;2.13;;
21095;SDS011;10706;49.036;12.112;2023-07-31T09:51:39;6.03;;;2.00;;
21095;SDS011;10706;49.036;12.112;2023-07-31T09:54:14;7.70;;;1.83;;
21095;SDS011;10706;49.036;12.112;2023-07-31T09:56:45;6.75;;;2.05;;
21095;SDS011;10706;49.036;12.112;2023-07-31T09:59:19;9.82;;;2.45;;
21095;SDS011;10706;49.036;12.112;2023-07-31T10:01:45;9.25;;;2.30;;
21095;SDS011;10706;49.036;12.112;2023-07-31T10:04:12;6.60;;;2.10;;
21095;SDS011;10706;49.036;12.112;2023-07-31T10:06:39;5.30;;;1.77;;
21095;SDS011;10706;49.036;12.112;2023-07-31T10:09:09;8.63;;;2.22;;
21095;SDS011;10706;49.036;12.112;2023-07-31T10:11:40;5.85;;;1.90;;
21095;SDS011;10706;49.036;12.112;2023-07-31T10:14:15;6.35;;;1.75;;
21095;SDS011;10706;49.036;12.112;2023-07-31T10:16:43;8.07;;;2.08;;
21095;SDS011;10706;49.036;12.112;2023-07-31T10:19:09;4.97;;;1.77;;
21095;SDS011;10706;49.036;12.112;2023-07-31T10:21:35;7.30;;;1.70;;
21095;SDS011;10706;49.036;12.112;2023-07-31T10:24:03;7.97;;;2.38;;
21095;SDS011;10706;49.036;12.112;2023-07-31T10:26:30;8.25;;;2.35;;
21095;SDS011;10706;49.036;12.112;2023-07-31T10:28:58;9.35;;;2.00;;
21095;SDS011;10706;49.036;12.112;2023-07-31T10:31:25;4.63;;;1.48;;
21095;SDS011;10706;49.036;12.112;2023-07-31T10:33:53;4.25;;;1.58;;
21095;SDS011;10706;49.036;12.112;2023-07-31T10:36:24;7.13;;;1.90;;
21095;SDS011;10706;49.036;12.112;2023-07-31T10:38:50;9.35;;;1.95;;
21095;SDS011;10706;49.036;12.112;2023-07-31T10:41:16;6.97;;;1.98;;
21095;SDS011;10706;49.036;12.112;2023-07-31T10:43:43;10.32;;;2.00;;
21095;SDS011;10706;49.036;12.112;2023-07-31T10:46:12;4.65;;;1.90;;
21095;SDS011;10706;49.036;12.112;2023-07-31T10:48:39;6.47;;;1.60;;
21095;SDS011;10706;49.036;12.112;2023-07-31T10:51:10;6.32;;;1.95;;
21095;SDS011;10706;49.036;12.112;2023-07-31T10:53:37;3.97;;;1.65;;
21095;SDS011;10706;49.036;12.112;2023-07-31T10:58:32;5.68;;;1.50;;
21095;SDS011;10706;49.036;12.112;2023-07-31T11:01:02;5.53;;;1.60;;
21095;SDS011;10706;49.036;12.112;2023-07-31T11:03:46;4.32;;;1.45;;
21095;SDS011;10706;49.036;12.112;2023-07-31T11:06:21;6.93;;;1.77;;
21095;SDS011;10706;49.036;12.112;2023-07-31T11:08:52;4.18;;;1.67;;
21095;SDS011;10706;49.036;12.112;2023-07-31T11:11:29;6.82;;;1.90;;
21095;SDS011;10706;49.036;12.112;2023-07-31T11:14:02;8.85;;;1.98;;
21095;SDS011;10706;49.036;12.112;2023-07-31T11:16:27;6.25;;;1.77;;
21095;SDS011;10706;49.036;12.112;2023-07-31T11:18:53;5.85;;;1.55;;
21095;SDS011;10706;49.036;12.112;2023-07-31T11:21:21;5.43;;;1.95;;
21095;SDS011;10706;49.036;12.112;2023-07-31T11:23:49;7.53;;;1.88;;
21095;SDS011;10706;49.036;12.112;2023-07-31T11:26:21;3.33;;;1.30;;
21095;SDS011;10706;49.036;12.112;2023-07-31T11:28:49;4.22;;;1.60;;
21095;SDS011;10706;49.036;12.112;2023-07-31T11:31:16;5.78;;;1.50;;
21095;SDS011;10706;49.036;12.112;2023-07-31T11:33:43;8.73;;;1.80;;
21095;SDS011;10706;49.036;12.112;2023-07-31T11:36:16;5.70;;;1.70;;
21095;SDS011;10706;49.036;12.112;2023-07-31T11:38:44;8.50;;;2.10;;
21095;SDS011;10706;49.036;12.112;2023-07-31T11:41:10;5.10;;;1.58;;
21095;SDS011;10706;49.036;12.112;2023-07-31T11:43:38;4.38;;;1.77;;
21095;SDS011;10706;49.036;12.112;2023-07-31T11:46:04;10.57;;;1.60;;
21095;SDS011;10706;49.036;12.112;2023-07-31T11:48:32;3.47;;;1.40;;
21095;SDS011;10706;49.036;12.112;2023-07-31T11:51:02;6.75;;;1.50;;
21095;SDS011;10706;49.036;12.112;2023-07-31T11:53:31;8.30;;;1.70;;
21095;SDS011;10706;49.036;12.112;2023-07-31T11:56:02;4.80;;;1.70;;
21095;SDS011;10706;49.036;12.112;2023-07-31T11:58:31;6.05;;;1.88;;
21095;SDS011;10706;49.036;12.112;2023-07-31T12:00:59;5.18;;;1.90;;
21095;SDS011;10706;49.036;12.112;2023-07-31T12:03:25;5.63;;;1.98;;
21095;SDS011;10706;49.036;12.112;2023-07-31T12:05:55;8.10;;;1.80;;
21095;SDS011;10706;49.036;12.112;2023-07-31T12:08:21;5.63;;;1.83;;
21095;SDS011;10706;49.036;12.112;2023-07-31T12:10:52;6.25;;;1.60;;
21095;SDS011;10706;49.036;12.112;2023-07-31T12:13:20;6.72;;;1.40;;
21095;SDS011;10706;49.036;12.112;2023-07-31T12:15:53;6.43;;;1.73;;
21095;SDS011;10706;49.036;12.112;2023-07-31T12:18:24;5.00;;;1.60;;
21095;SDS011;10706;49.036;12.112;2023-07-31T12:20:59;5.05;;;1.45;;
21095;SDS011;10706;49.036;12.112;2023-07-31T12:23:28;5.80;;;1.70;;
21095;SDS011;10706;49.036;12.112;2023-07-31T12:26:00;5.72;;;1.50;;
21095;SDS011;10706;49.036;12.112;2023-07-31T12:28:25;3.00;;;1.38;;
21095;SDS011;10706;49.036;12.112;2023-07-31T12:30:51;5.60;;;1.70;;
21095;SDS011;10706;49.036;12.112;2023-07-31T12:33:21;8.52;;;1.83;;
21095;SDS011;10706;49.036;12.112;2023-07-31T12:35:47;5.60;;;1.80;;
21095;SDS011;10706;49.036;12.112;2023-07-31T12:38:13;7.75;;;1.58;;
21095;SDS011;10706;49.036;12.112;2023-07-31T12:40:39;5.93;;;1.80;;
21095;SDS011;10706;49.036;12.112;2023-07-31T12:43:07;5.25;;;1.75;;
21095;SDS011;10706;49.036;12.112;2023-07-31T12:45:34;6.43;;;1.70;;
21095;SDS011;10706;49.036;12.112;2023-07-31T12:48:00;7.22;;;1.70;;
21095;SDS011;10706;49.036;12.112;2023-07-31T12:50:26;5.50;;;1.70;;
21095;SDS011;10706;49.036;12.112;2023-07-31T12:52:55;5.03;;;1.50;;
21095;SDS011;10706;49.036;12.112;2023-07-31T12:55:22;7.63;;;1.88;;
21095;SDS011;10706;49.036;12.112;2023-07-31T12:57:48;6.95;;;2.25;;
21095;SDS011;10706;49.036;12.112;2023-07-31T13:00:15;8.27;;;1.75;;
21095;SDS011;10706;49.036;12.112;2023-07-31T13:02:41;6.47;;;1.65;;
21095;SDS011;10706;49.036;12.112;2023-07-31T13:05:08;6.90;;;2.05;;
21095;SDS011;10706;49.036;12.112;2023-07-31T13:07:34;7.47;;;1.80;;
21095;SDS011;10706;49.036;12.112;2023-07-31T13:09:59;6.88;;;1.90;;
21095;SDS011;10706;49.036;12.112;2023-07-31T13:12:25;5.97;;;1.80;;
21095;SDS011;10706;49.036;12.112;2023-07-31T13:14:51;5.93;;;2.00;;
21095;SDS011;10706;49.036;12.112;2023-07-31T13:17:17;5.18;;;2.00;;
21095;SDS011;10706;49.036;12.112;2023-07-31T13:19:43;5.40;;;1.85;;
21095;SDS011;10706;49.036;12.112;2023-07-31T13:22:09;4.93;;;1.67;;
21095;SDS011;10706;49.036;12.112;2023-07-31T13:24:35;4.63;;;1.83;;
21095;SDS011;10706;49.036;12.112;2023-07-31T13:27:01;5.78;;;1.90;;
21095;SDS011;10706;49.036;12.112;2023-07-31T13:29:26;7.35;;;2.10;;
21095;SDS011;10706;49.036;12.112;2023-07-31T13:31:52;7.53;;;1.70;;
21095;SDS011;10706;49.036;12.112;2023-07-31T13:34:18;7.68;;;2.33;;
21095;SDS011;10706;49.036;12.112;2023-07-31T13:36:44;6.50;;;2.10;;
21095;SDS011;10706;49.036;12.112;2023-07-31T13:39:09;8.48;;;1.67;;
21095;SDS011;10706;49.036;12.112;2023-07-31T13:41:35;5.93;;;1.88;;
21095;SDS011;10706;49.036;12.112;2023-07-31T13:44:01;6.97;;;1.85;;
21095;SDS011;10706;49.036;12.112;2023-07-31T13:46:27;4.90;;;1.92;;
21095;SDS011;10706;49.036;12.112;2023-07-31T13:48:52;6.47;;;2.10;;
21095;SDS011;10706;49.036;12.112;2023-07-31T13:51:20;5.63;;;1.80;;
21095;SDS011;10706;49.036;12.112;2023-07-31T13:53:46;9.20;;;2.05;;
21095;SDS011;10706;49.036;12.112;2023-07-31T13:56:13;5.65;;;1.90;;
21095;SDS011;10706;49.036;12.112;2023-07-31T13:58:39;7.15;;;1.98;;
21095;SDS011;10706;49.036;12.112;2023-07-31T14:01:04;7.07;;;2.30;;
21095;SDS011;10706;49.036;12.112;2023-07-31T14:03:30;6.45;;;2.30;;
21095;SDS011;10706;49.036;12.112;2023-07-31T14:05:56;7.97;;;2.03;;
21095;SDS011;10706;49.036;12.112;2023-07-31T14:08:22;5.82;;;2.00;;
21095;SDS011;10706;49.036;12.112;2023-07-31T14:10:48;9.60;;;2.22;;
21095;SDS011;10706;49.036;12.112;2023-07-31T14:13:14;9.80;;;1.80;;
21095;SDS011;10706;49.036;12.112;2023-07-31T14:15:42;10.60;;;1.90;;
21095;SDS011;10706;49.036;12.112;2023-07-31T14:18:09;7.35;;;2.20;;
21095;SDS011;10706;49.036;12.112;2023-07-31T14:20:35;4.07;;;1.75;;
21095;SDS011;10706;49.036;12.112;2023-07-31T14:23:02;9.38;;;2.22;;
21095;SDS011;10706;49.036;12.112;2023-07-31T14:25:28;7.55;;;2.00;;
21095;SDS011;10706;49.036;12.112;2023-07-31T14:27:54;4.47;;;1.88;;
21095;SDS011;10706;49.036;12.112;2023-07-31T14:30:19;6.38;;;2.30;;
21095;SDS011;10706;49.036;12.112;2023-07-31T14:32:46;8.57;;;2.38;;
21095;SDS011;10706;49.036;12.112;2023-07-31T14:35:12;8.02;;;2.55;;
21095;SDS011;10706;49.036;12.112;2023-07-31T14:37:41;7.85;;;2.05;;
21095;SDS011;10706;49.036;12.112;2023-07-31T14:40:09;6.95;;;1.75;;
21095;SDS011;10706;49.036;12.112;2023-07-31T14:42:37;8.52;;;2.38;;
21095;SDS011;10706;49.036;12.112;2023-07-31T14:45:04;6.35;;;1.88;;
21095;SDS011;10706;49.036;12.112;2023-07-31T14:47:31;6.05;;;1.88;;